sensor_id;sensor_type;location;lat;lon;timestamp;pressure;altitude;pressure_sealevel;temperature;humidity
48352;BME280;34163;49.314;6.752;2022-11-15T05:19:27;99055.13;;;5.40;100.00
48352;BME280;34163;49.314;6.752;2022-11-15T05:21:52;99049.69;;;5.46;100.00
48352;BME280;34163;49.314;6.752;2022-11-15T05:24:17;99041.94;;;5.41;100.00
48352;BME280;34163;49.314;6.752;2022-11-15T05:26:43;99045.16;;;5.50;100.00
48352;BME280;34163;49.314;6.752;2022-11-15T05:29:08;99040.16;;;5.42;100.00
48352;BME280;34163;49.314;6.752;2022-11-15T05:31:34;99041.94;;;5.41;100.00
48352;BME280;34163;49.314;6.752;2022-11-15T05:34:03;99039.38;;;5.40;100.00
48352;BME280;34163;49.314;6.752;2022-11-15T05:36:36;99034.97;;;5.40;100.00
48352;BME280;34163;49.314;6.752;2022-11-15T05:39:05;99046.34;;;5.41;100.00
48352;BME280;34163;49.314;6.752;2022-11-15T05:41:32;99038.28;;;5.45;100.00
48352;BME280;34163;49.314;6.752;2022-11-15T05:43:58;99042.69;;;5.45;100.00
48352;BME280;34163;49.314;6.752;2022-11-15T05:46:24;99040.13;;;5.43;100.00
48352;BME280;34163;49.314;6.752;2022-11-15T05:48:50;99038.38;;;5.42;100.00
48352;BME280;34163;49.314;6.752;2022-11-15T05:51:17;99040.06;;;5.45;100.00
48352;BME280;34163;49.314;6.752;2022-11-15T05:53:44;99035.84;;;5.41;100.00
48352;BME280;34163;49.314;6.752;2022-11-15T05:56:09;99039.31;;;5.41;100.00
48352;BME280;34163;49.314;6.752;2022-11-15T05:58:35;99043.81;;;5.38;100.00
48352;BME280;34163;49.314;6.752;2022-11-15T06:01:00;99042.00;;;5.40;100.00
48352;BME280;34163;49.314;6.752;2022-11-15T06:03:26;99047.94;;;5.45;100.00
48352;BME280;34163;49.314;6.752;2022-11-15T06:05:51;99042.69;;;5.45;100.00
48352;BME280;34163;49.314;6.752;2022-11-15T06:08:16;99042.78;;;5.42;100.00
48352;BME280;34163;49.314;6.752;2022-11-15T06:10:42;99036.75;;;5.40;100.00
48352;BME280;34163;49.314;6.752;2022-11-15T06:13:07;99038.47;;;5.41;100.00
48352;BME280;34163;49.314;6.752;2022-11-15T06:15:32;99033.31;;;5.38;100.00
48352;BME280;34163;49.314;6.752;2022-11-15T06:17:59;99040.38;;;5.36;100.00
48352;BME280;34163;49.314;6.752;2022-11-15T06:20:25;99036.00;;;5.36;100.00
48352;BME280;34163;49.314;6.752;2022-11-15T06:22:50;99029.72;;;5.40;100.00
48352;BME280;34163;49.314;6.752;2022-11-15T06:25:15;99031.59;;;5.37;100.00
48352;BME280;34163;49.314;6.752;2022-11-15T06:27:41;99039.47;;;5.37;100.00
48352;BME280;34163;49.314;6.752;2022-11-15T06:30:06;99041.16;;;5.39;100.00
48352;BME280;34163;49.314;6.752;2022-11-15T06:32:31;99043.78;;;5.39;100.00
48352;BME280;34163;49.314;6.752;2022-11-15T06:34:57;99044.63;;;5.40;100.00
48352;BME280;34163;49.314;6.752;2022-11-15T06:37:22;99044.63;;;5.40;100.00
48352;BME280;34163;49.314;6.752;2022-11-15T06:39:47;99039.25;;;5.43;100.00
48352;BME280;34163;49.314;6.752;2022-11-15T06:42:12;99039.38;;;5.40;100.00
48352;BME280;34163;49.314;6.752;2022-11-15T06:44:38;99042.91;;;5.39;100.00
48352;BME280;34163;49.314;6.752;2022-11-15T06:47:03;99039.47;;;5.37;100.00
48352;BME280;34163;49.314;6.752;2022-11-15T06:49:28;99045.63;;;5.36;100.00
48352;BME280;34163;49.314;6.752;2022-11-15T06:51:53;99044.72;;;5.37;100.00
48352;BME280;34163;49.314;6.752;2022-11-15T06:54:19;99047.31;;;5.38;100.00
48352;BME280;34163;49.314;6.752;2022-11-15T06:56:45;99046.44;;;5.38;100.00
48352;BME280;34163;49.314;6.752;2022-11-15T06:59:11;99059.59;;;5.38;100.00
48352;BME280;34163;49.314;6.752;2022-11-15T07:01:36;99053.56;;;5.34;100.00
48352;BME280;34163;49.314;6.752;2022-11-15T07:04:01;99055.22;;;5.37;100.00
48352;BME280;34163;49.314;6.752;2022-11-15T07:06:26;99060.38;;;5.40;100.00
48352;BME280;34163;49.314;6.752;2022-11-15T07:08:52;99063.97;;;5.37;100.00
48352;BME280;34163;49.314;6.752;2022-11-15T07:11:17;99055.34;;;5.34;100.00
48352;BME280;34163;49.314;6.752;2022-11-15T07:13:42;99047.31;;;5.38;100.00
48352;BME280;34163;49.314;6.752;2022-11-15T08:57:08;99015.06;;;5.33;100.00
48352;BME280;34163;49.314;6.752;2022-11-15T08:59:34;99016.81;;;5.33;100.00
48352;BME280;34163;49.314;6.752;2022-11-15T09:02:03;99009.91;;;5.30;100.00
48352;BME280;34163;49.314;6.752;2022-11-15T09:04:28;99015.13;;;5.32;100.00
48352;BME280;34163;49.314;6.752;2022-11-15T09:06:53;99018.44;;;5.37;100.00
48352;BME280;34163;49.314;6.752;2022-11-15T09:09:18;99013.19;;;5.37;100.00
48352;BME280;34163;49.314;6.752;2022-11-15T09:11:47;99015.03;;;5.35;100.00
48352;BME280;34163;49.314;6.752;2022-11-15T09:14:13;99014.19;;;5.33;100.00
48352;BME280;34163;49.314;6.752;2022-11-15T09:16:42;99009.66;;;5.38;100.00
48352;BME280;34163;49.314;6.752;2022-11-15T09:19:07;99012.13;;;5.42;100.00
48352;BME280;34163;49.314;6.752;2022-11-15T09:21:32;99007.00;;;5.39;100.00
48352;BME280;34163;49.314;6.752;2022-11-15T09:23:57;98998.19;;;5.40;100.00
48352;BME280;34163;49.314;6.752;2022-11-15T09:26:23;98995.69;;;5.36;100.00
48352;BME280;34163;49.314;6.752;2022-11-15T09:28:48;98989.44;;;5.40;100.00
48352;BME280;34163;49.314;6.752;2022-11-15T09:31:13;98988.53;;;5.41;100.00
48352;BME280;34163;49.314;6.752;2022-11-15T09:33:39;98982.91;;;7.55;100.00
48352;BME280;34163;49.314;6.752;2022-11-15T09:36:05;98975.00;;;6.70;100.00
48352;BME280;34163;49.314;6.752;2022-11-15T09:38:31;98972.31;;;6.27;100.00
48352;BME280;34163;49.314;6.752;2022-11-15T09:46:09;98965.19;;;6.53;100.00
48352;BME280;34163;49.314;6.752;2022-11-15T09:51:38;98964.22;;;6.98;100.00
48352;BME280;34163;49.314;6.752;2022-11-15T09:56:42;98955.31;;;7.23;100.00
48352;BME280;34163;49.314;6.752;2022-11-15T10:04:38;98945.38;;;7.50;100.00
48352;BME280;34163;49.314;6.752;2022-11-15T10:09:45;98943.81;;;7.65;100.00
48352;BME280;34163;49.314;6.752;2022-11-15T10:12:13;98937.44;;;7.71;100.00
48352;BME280;34163;49.314;6.752;2022-11-15T10:14:39;98941.38;;;7.81;100.00
48352;BME280;34163;49.314;6.752;2022-11-15T10:24:40;98926.59;;;7.96;100.00
48352;BME280;34163;49.314;6.752;2022-11-15T10:27:17;98923.56;;;8.05;100.00
48352;BME280;34163;49.314;6.752;2022-11-15T10:29:46;98912.00;;;8.08;100.00
48352;BME280;34163;49.314;6.752;2022-11-15T10:32:13;98915.28;;;8.13;100.00
48352;BME280;34163;49.314;6.752;2022-11-15T10:34:38;98906.38;;;8.15;100.00
48352;BME280;34163;49.314;6.752;2022-11-15T10:37:03;98896.41;;;8.22;100.00
48352;BME280;34163;49.314;6.752;2022-11-15T10:39:29;98890.09;;;8.25;100.00
48352;BME280;34163;49.314;6.752;2022-11-15T10:41:54;98882.03;;;8.28;100.00
48352;BME280;34163;49.314;6.752;2022-11-15T10:44:21;98884.44;;;8.32;100.00
48352;BME280;34163;49.314;6.752;2022-11-15T10:46:48;98880.06;;;8.33;100.00
48352;BME280;34163;49.314;6.752;2022-11-15T10:49:16;98876.31;;;8.37;100.00
48352;BME280;34163;49.314;6.752;2022-11-15T10:51:49;98862.91;;;8.42;100.00
48352;BME280;34163;49.314;6.752;2022-11-15T10:54:48;98861.00;;;8.45;100.00
48352;BME280;34163;49.314;6.752;2022-11-15T10:57:18;98852.06;;;8.48;100.00
48352;BME280;34163;49.314;6.752;2022-11-15T10:59:49;98844.22;;;8.46;100.00
48352;BME280;34163;49.314;6.752;2022-11-15T11:02:56;98838.66;;;8.52;100.00
48352;BME280;34163;49.314;6.752;2022-11-15T11:07:58;98832.13;;;8.60;100.00
48352;BME280;34163;49.314;6.752;2022-11-15T11:10:24;98828.72;;;8.58;100.00
48352;BME280;34163;49.314;6.752;2022-11-15T11:12:49;98831.03;;;8.64;100.00
48352;BME280;34163;49.314;6.752;2022-11-15T11:15:15;98822.34;;;8.62;100.00
48352;BME280;34163;49.314;6.752;2022-11-15T11:30:24;98801.06;;;8.82;100.00
48352;BME280;34163;49.314;6.752;2022-11-15T11:33:08;98799.34;;;8.81;100.00
48352;BME280;34163;49.314;6.752;2022-11-15T11:48:40;98774.00;;;8.95;100.00
48352;BME280;34163;49.314;6.752;2022-11-15T11:51:14;98772.91;;;8.99;100.00
48352;BME280;34163;49.314;6.752;2022-11-15T11:54:03;98760.47;;;9.01;100.00
48352;BME280;34163;49.314;6.752;2022-11-15T11:56:33;98753.38;;;9.01;100.00
48352;BME280;34163;49.314;6.752;2022-11-15T12:01:39;98741.72;;;9.05;100.00
48352;BME280;34163;49.314;6.752;2022-11-15T12:06:47;98735.28;;;9.11;100.00
48352;BME280;34163;49.314;6.752;2022-11-15T12:12:01;98730.59;;;9.16;100.00
48352;BME280;34163;49.314;6.752;2022-11-15T12:17:03;98720.91;;;8.48;100.00
48352;BME280;34163;49.314;6.752;2022-11-15T12:19:29;98715.66;;;8.12;100.00
48352;BME280;34163;49.314;6.752;2022-11-15T12:22:05;98709.84;;;7.88;100.00
48352;BME280;34163;49.314;6.752;2022-11-15T12:24:35;98706.16;;;7.73;100.00
48352;BME280;34163;49.314;6.752;2022-11-15T12:27:13;98697.69;;;7.66;100.00
48352;BME280;34163;49.314;6.752;2022-11-15T12:29:43;98696.28;;;7.59;100.00
48352;BME280;34163;49.314;6.752;2022-11-15T12:32:24;98686.16;;;7.50;100.00
48352;BME280;34163;49.314;6.752;2022-11-15T12:34:51;98681.97;;;7.45;100.00
48352;BME280;34163;49.314;6.752;2022-11-15T12:40:14;98685.06;;;7.36;100.00
48352;BME280;34163;49.314;6.752;2022-11-15T12:42:56;98680.13;;;7.28;100.00
48352;BME280;34163;49.314;6.752;2022-11-15T12:45:24;98672.22;;;7.28;100.00
48352;BME280;34163;49.314;6.752;2022-11-15T12:47:50;98666.19;;;7.26;100.00
48352;BME280;34163;49.314;6.752;2022-11-15T12:50:15;98667.38;;;7.19;100.00
48352;BME280;34163;49.314;6.752;2022-11-15T12:55:39;98662.50;;;7.12;100.00
48352;BME280;34163;49.314;6.752;2022-11-15T12:58:26;98662.66;;;7.08;100.00
48352;BME280;34163;49.314;6.752;2022-11-15T13:00:51;98659.34;;;7.03;100.00
48352;BME280;34163;49.314;6.752;2022-11-15T13:03:21;98654.06;;;7.03;100.00
48352;BME280;34163;49.314;6.752;2022-11-15T13:05:53;98659.47;;;7.00;100.00
48352;BME280;34163;49.314;6.752;2022-11-15T13:08:39;98652.53;;;6.99;100.00
48352;BME280;34163;49.314;6.752;2022-11-15T13:13:49;98637.06;;;6.91;100.00
48352;BME280;34163;49.314;6.752;2022-11-15T13:16:17;98627.59;;;6.87;100.00
48352;BME280;34163;49.314;6.752;2022-11-15T13:18:47;98619.69;;;6.87;100.00
48352;BME280;34163;49.314;6.752;2022-11-15T13:21:19;98618.06;;;6.85;100.00
48352;BME280;34163;49.314;6.752;2022-11-15T13:24:03;98613.88;;;6.81;100.00
48352;BME280;34163;49.314;6.752;2022-11-15T13:26:29;98599.16;;;6.77;100.00
48352;BME280;34163;49.314;6.752;2022-11-15T13:28:54;98600.97;;;6.75;100.00
48352;BME280;34163;49.314;6.752;2022-11-15T13:31:25;98591.25;;;6.77;100.00
48352;BME280;34163;49.314;6.752;2022-11-15T13:33:51;98589.66;;;6.72;100.00
48352;BME280;34163;49.314;6.752;2022-11-15T13:36:24;98577.50;;;6.70;100.00
48352;BME280;34163;49.314;6.752;2022-11-15T13:38:57;98576.66;;;6.69;100.00
48352;BME280;34163;49.314;6.752;2022-11-15T13:41:24;98568.81;;;6.68;100.00
48352;BME280;34163;49.314;6.752;2022-11-15T13:43:50;98561.84;;;6.67;100.00
48352;BME280;34163;49.314;6.752;2022-11-15T13:48:44;98557.59;;;6.64;100.00
48352;BME280;34163;49.314;6.752;2022-11-15T13:51:16;98552.47;;;6.61;100.00
48352;BME280;34163;49.314;6.752;2022-11-15T13:53:44;98546.22;;;6.64;100.00
48352;BME280;34163;49.314;6.752;2022-11-15T13:56:11;98540.22;;;6.60;100.00
48352;BME280;34163;49.314;6.752;2022-11-15T13:58:37;98540.34;;;6.57;100.00
48352;BME280;34163;49.314;6.752;2022-11-15T14:01:04;98537.88;;;6.54;100.00
48352;BME280;34163;49.314;6.752;2022-11-15T14:03:30;98540.50;;;6.54;100.00
48352;BME280;34163;49.314;6.752;2022-11-15T14:06:03;98536.19;;;6.53;100.00
48352;BME280;34163;49.314;6.752;2022-11-15T14:08:31;98525.72;;;6.51;100.00
48352;BME280;34163;49.314;6.752;2022-11-15T14:11:16;98523.16;;;6.50;100.00
48352;BME280;34163;49.314;6.752;2022-11-15T14:13:42;98519.91;;;6.45;100.00
48352;BME280;34163;49.314;6.752;2022-11-15T14:16:23;98513.81;;;6.43;100.00
48352;BME280;34163;49.314;6.752;2022-11-15T14:18:57;98507.66;;;6.44;100.00
48352;BME280;34163;49.314;6.752;2022-11-15T14:21:22;98508.69;;;6.40;100.00
48352;BME280;34163;49.314;6.752;2022-11-15T14:23:47;98507.78;;;6.41;100.00
48352;BME280;34163;49.314;6.752;2022-11-15T14:26:27;98494.00;;;6.35;100.00
48352;BME280;34163;49.314;6.752;2022-11-15T14:28:53;98497.41;;;6.38;100.00
48352;BME280;34163;49.314;6.752;2022-11-15T14:31:18;98503.75;;;6.33;100.00
48352;BME280;34163;49.314;6.752;2022-11-15T14:33:44;98490.75;;;6.30;100.00
48352;BME280;34163;49.314;6.752;2022-11-15T14:36:11;98493.28;;;6.32;100.00
48352;BME280;34163;49.314;6.752;2022-11-15T14:38:37;98497.81;;;6.28;100.00
48352;BME280;34163;49.314;6.752;2022-11-15T14:41:02;98485.47;;;6.30;100.00
48352;BME280;34163;49.314;6.752;2022-11-15T14:43:28;98485.69;;;6.26;100.00
48352;BME280;34163;49.314;6.752;2022-11-15T14:45:53;98477.06;;;6.22;100.00
48352;BME280;34163;49.314;6.752;2022-11-15T14:48:18;98485.88;;;6.21;100.00
48352;BME280;34163;49.314;6.752;2022-11-15T14:50:44;98481.53;;;6.20;100.00
48352;BME280;34163;49.314;6.752;2022-11-15T14:53:16;98484.16;;;6.20;100.00
48352;BME280;34163;49.314;6.752;2022-11-15T14:55:42;98483.31;;;6.20;100.00
48352;BME280;34163;49.314;6.752;2022-11-15T14:58:07;98472.81;;;6.39;100.00
48352;BME280;34163;49.314;6.752;2022-11-15T15:00:36;98465.13;;;6.89;100.00
48352;BME280;34163;49.314;6.752;2022-11-15T15:03:02;98464.44;;;7.21;100.00
48352;BME280;34163;49.314;6.752;2022-11-15T15:05:38;98466.31;;;7.36;100.00
48352;BME280;34163;49.314;6.752;2022-11-15T15:08:04;98460.81;;;7.58;100.00
48352;BME280;34163;49.314;6.752;2022-11-15T15:10:31;98462.91;;;7.69;100.00
48352;BME280;34163;49.314;6.752;2022-11-15T15:12:57;98448.44;;;7.76;100.00
48352;BME280;34163;49.314;6.752;2022-11-15T15:15:24;98449.84;;;7.84;100.00
48352;BME280;34163;49.314;6.752;2022-11-15T15:17:50;98443.88;;;7.96;100.00
48352;BME280;34163;49.314;6.752;2022-11-15T15:20:15;98439.84;;;8.06;100.00
48352;BME280;34163;49.314;6.752;2022-11-15T15:22:41;98438.72;;;8.10;100.00
48352;BME280;34163;49.314;6.752;2022-11-15T15:25:20;98434.00;;;8.17;100.00
48352;BME280;34163;49.314;6.752;2022-11-15T15:27:45;98435.44;;;8.23;100.00
48352;BME280;34163;49.314;6.752;2022-11-15T15:30:11;98436.09;;;8.26;100.00
48352;BME280;34163;49.314;6.752;2022-11-15T15:32:36;98435.69;;;8.34;100.00
48352;BME280;34163;49.314;6.752;2022-11-15T15:35:01;98431.00;;;8.39;100.00
48352;BME280;34163;49.314;6.752;2022-11-15T15:37:27;98432.56;;;8.43;100.00
48352;BME280;34163;49.314;6.752;2022-11-15T15:39:53;98431.56;;;8.46;100.00
48352;BME280;34163;49.314;6.752;2022-11-15T15:42:19;98432.91;;;8.53;100.00
48352;BME280;34163;49.314;6.752;2022-11-15T15:44:45;98433.75;;;8.53;100.00
48352;BME280;34163;49.314;6.752;2022-11-15T15:47:17;98435.22;;;8.59;100.00
48352;BME280;34163;49.314;6.752;2022-11-15T15:49:43;98433.16;;;8.64;100.00
48352;BME280;34163;49.314;6.752;2022-11-15T15:52:09;98432.16;;;8.67;100.00
48352;BME280;34163;49.314;6.752;2022-11-15T15:54:34;98436.28;;;8.71;100.00
48352;BME280;34163;49.314;6.752;2022-11-15T15:56:59;98430.84;;;8.74;100.00
48352;BME280;34163;49.314;6.752;2022-11-15T15:59:25;98440.38;;;8.77;100.00
48352;BME280;34163;49.314;6.752;2022-11-15T16:01:50;98432.38;;;8.78;100.00
48352;BME280;34163;49.314;6.752;2022-11-15T16:04:15;98429.41;;;8.84;100.00
48352;BME280;34163;49.314;6.752;2022-11-15T16:06:41;98431.16;;;8.84;100.00
48352;BME280;34163;49.314;6.752;2022-11-15T16:09:18;98428.44;;;8.85;100.00
48352;BME280;34163;49.314;6.752;2022-11-15T16:12:04;98416.69;;;8.91;100.00
48352;BME280;34163;49.314;6.752;2022-11-15T16:14:30;98421.78;;;8.94;100.00
48352;BME280;34163;49.314;6.752;2022-11-15T16:16:55;98420.78;;;8.97;100.00
48352;BME280;34163;49.314;6.752;2022-11-15T16:19:21;98410.88;;;9.00;100.00
48352;BME280;34163;49.314;6.752;2022-11-15T16:21:46;98409.91;;;9.01;100.00
48352;BME280;34163;49.314;6.752;2022-11-15T16:24:11;98411.53;;;9.04;100.00
48352;BME280;34163;49.314;6.752;2022-11-15T16:26:36;98407.97;;;9.05;100.00
48352;BME280;34163;49.314;6.752;2022-11-15T16:29:02;98404.97;;;9.11;100.00
48352;BME280;34163;49.314;6.752;2022-11-15T16:31:27;98404.88;;;9.13;100.00
48352;BME280;34163;49.314;6.752;2022-11-15T16:33:52;98396.81;;;9.14;100.00
48352;BME280;34163;49.314;6.752;2022-11-15T16:38:43;98398.91;;;9.09;100.00
48352;BME280;34163;49.314;6.752;2022-11-15T16:41:08;98400.72;;;8.46;100.00
48352;BME280;34163;49.314;6.752;2022-11-15T16:43:33;98391.31;;;8.09;100.00
48352;BME280;34163;49.314;6.752;2022-11-15T16:46:08;98394.91;;;7.92;100.00
48352;BME280;34163;49.314;6.752;2022-11-15T16:48:37;98388.63;;;7.77;100.00
48352;BME280;34163;49.314;6.752;2022-11-15T16:51:04;98385.66;;;7.67;100.00
48352;BME280;34163;49.314;6.752;2022-11-15T16:53:29;98385.97;;;7.61;100.00
48352;BME280;34163;49.314;6.752;2022-11-15T16:55:55;98374.13;;;7.52;100.00
48352;BME280;34163;49.314;6.752;2022-11-15T16:58:20;98369.09;;;7.48;100.00
48352;BME280;34163;49.314;6.752;2022-11-15T17:00:49;98379.13;;;7.41;100.00
48352;BME280;34163;49.314;6.752;2022-11-15T17:03:14;98379.28;;;7.38;100.00
48352;BME280;34163;49.314;6.752;2022-11-15T17:05:39;98385.63;;;7.34;100.00
48352;BME280;34163;49.314;6.752;2022-11-15T17:08:05;98385.88;;;7.29;100.00
48352;BME280;34163;49.314;6.752;2022-11-15T17:10:30;98386.06;;;7.26;100.00
48352;BME280;34163;49.314;6.752;2022-11-15T17:12:55;98385.41;;;7.21;100.00
48352;BME280;34163;49.314;6.752;2022-11-15T17:15:21;98387.28;;;7.19;100.00
48352;BME280;34163;49.314;6.752;2022-11-15T17:17:52;98388.34;;;7.15;100.00
48352;BME280;34163;49.314;6.752;2022-11-15T17:20:18;98389.47;;;7.11;100.00
48352;BME280;34163;49.314;6.752;2022-11-15T17:22:43;98392.09;;;7.11;100.00
48352;BME280;34163;49.314;6.752;2022-11-15T17:25:09;98382.63;;;7.06;100.00
48352;BME280;34163;49.314;6.752;2022-11-15T17:27:34;98378.47;;;7.02;100.00
48352;BME280;34163;49.314;6.752;2022-11-15T17:29:59;98379.53;;;6.98;100.00
48352;BME280;34163;49.314;6.752;2022-11-15T17:32:25;98370.97;;;6.95;100.00
48352;BME280;34163;49.314;6.752;2022-11-15T17:34:50;98367.41;;;6.96;100.00
48352;BME280;34163;49.314;6.752;2022-11-15T17:37:15;98375.53;;;6.91;100.00
48352;BME280;34163;49.314;6.752;2022-11-15T17:39:41;98370.56;;;6.85;100.00
48352;BME280;34163;49.314;6.752;2022-11-15T17:42:06;98370.56;;;6.85;100.00
48352;BME280;34163;49.314;6.752;2022-11-15T17:44:31;98376.00;;;6.82;100.00
48352;BME280;34163;49.314;6.752;2022-11-15T17:46:56;98359.56;;;6.77;100.00
48352;BME280;34163;49.314;6.752;2022-11-15T17:49:22;98362.34;;;6.73;100.00
48352;BME280;34163;49.314;6.752;2022-11-15T17:51:47;98359.81;;;6.72;100.00
48352;BME280;34163;49.314;6.752;2022-11-15T17:54:12;98357.41;;;6.67;100.00
48352;BME280;34163;49.314;6.752;2022-11-15T17:56:38;98356.63;;;6.65;100.00
48352;BME280;34163;49.314;6.752;2022-11-15T17:59:04;98361.88;;;6.65;100.00
48352;BME280;34163;49.314;6.752;2022-11-15T18:01:30;98350.56;;;6.63;100.00
48352;BME280;34163;49.314;6.752;2022-11-15T18:03:56;98350.88;;;6.57;100.00
48352;BME280;34163;49.314;6.752;2022-11-15T18:06:24;98348.22;;;6.57;100.00
48352;BME280;34163;49.314;6.752;2022-11-15T18:08:50;98347.47;;;6.55;100.00
48352;BME280;34163;49.314;6.752;2022-11-15T18:11:17;98343.19;;;6.52;100.00
48352;BME280;34163;49.314;6.752;2022-11-15T18:13:44;98338.81;;;6.53;100.00
48352;BME280;34163;49.314;6.752;2022-11-15T18:16:11;98339.78;;;6.50;100.00
48352;BME280;34163;49.314;6.752;2022-11-15T18:18:37;98337.25;;;6.49;100.00
48352;BME280;34163;49.314;6.752;2022-11-15T18:21:03;98335.63;;;6.46;100.00
48352;BME280;34163;49.314;6.752;2022-11-15T18:23:29;98339.25;;;6.44;100.00
48352;BME280;34163;49.314;6.752;2022-11-15T18:25:54;98331.34;;;6.44;100.00
48352;BME280;34163;49.314;6.752;2022-11-15T18:28:20;98326.38;;;6.38;100.00
48352;BME280;34163;49.314;6.752;2022-11-15T18:30:46;98326.47;;;6.36;100.00
48352;BME280;34163;49.314;6.752;2022-11-15T18:33:11;98329.16;;;6.34;100.00
48352;BME280;34163;49.314;6.752;2022-11-15T18:35:37;98324.75;;;6.35;100.00
48352;BME280;34163;49.314;6.752;2022-11-15T18:38:02;98315.25;;;6.32;100.00
48352;BME280;34163;49.314;6.752;2022-11-15T18:40:27;98315.31;;;6.31;100.00
48352;BME280;34163;49.314;6.752;2022-11-15T18:42:52;98310.13;;;6.29;100.00
48352;BME280;34163;49.314;6.752;2022-11-15T18:45:20;98314.78;;;6.24;100.00
48352;BME280;34163;49.314;6.752;2022-11-15T18:47:46;98314.63;;;6.27;100.00
48352;BME280;34163;49.314;6.752;2022-11-15T18:50:11;98309.44;;;6.26;100.00
48352;BME280;34163;49.314;6.752;2022-11-15T18:52:36;98318.47;;;6.20;100.00
48352;BME280;34163;49.314;6.752;2022-11-15T18:55:02;98322.97;;;6.18;100.00
48352;BME280;34163;49.314;6.752;2022-11-15T18:57:27;98324.66;;;6.19;100.00
48352;BME280;34163;49.314;6.752;2022-11-15T18:59:52;98315.84;;;6.20;100.00
48352;BME280;34163;49.314;6.752;2022-11-15T19:02:18;98313.34;;;6.17;100.00
48352;BME280;34163;49.314;6.752;2022-11-15T19:04:43;98299.34;;;6.16;100.00
48352;BME280;34163;49.314;6.752;2022-11-15T19:07:08;98300.34;;;6.14;100.00
48352;BME280;34163;49.314;6.752;2022-11-15T19:09:33;98299.50;;;6.13;100.00
48352;BME280;34163;49.314;6.752;2022-11-15T19:11:59;98291.69;;;6.12;100.00
48352;BME280;34163;49.314;6.752;2022-11-15T19:14:24;98283.81;;;6.12;100.00
48352;BME280;34163;49.314;6.752;2022-11-15T19:16:51;98285.66;;;6.10;100.00
48352;BME280;34163;49.314;6.752;2022-11-15T19:19:18;98282.16;;;6.09;100.00
48352;BME280;34163;49.314;6.752;2022-11-15T19:21:43;98285.28;;;6.17;100.00
48352;BME280;34163;49.314;6.752;2022-11-15T19:24:08;98267.91;;;6.67;100.00
48352;BME280;34163;49.314;6.752;2022-11-15T19:26:37;98276.44;;;7.06;100.00
48352;BME280;34163;49.314;6.752;2022-11-15T19:29:06;98277.75;;;7.31;100.00
48352;BME280;34163;49.314;6.752;2022-11-15T19:31:32;98263.78;;;7.46;100.00
48352;BME280;34163;49.314;6.752;2022-11-15T19:34:01;98257.91;;;7.57;100.00
48352;BME280;34163;49.314;6.752;2022-11-15T19:36:29;98263.38;;;7.70;100.00
48352;BME280;34163;49.314;6.752;2022-11-15T19:38:58;98262.94;;;7.77;100.00
48352;BME280;34163;49.314;6.752;2022-11-15T19:41:24;98259.81;;;7.87;100.00
48352;BME280;34163;49.314;6.752;2022-11-15T19:43:50;98258.25;;;7.98;100.00
48352;BME280;34163;49.314;6.752;2022-11-15T19:46:16;98253.38;;;8.07;100.00
48352;BME280;34163;49.314;6.752;2022-11-15T19:48:41;98254.84;;;8.12;100.00
48352;BME280;34163;49.314;6.752;2022-11-15T19:51:09;98249.22;;;8.18;100.00
48352;BME280;34163;49.314;6.752;2022-11-15T19:53:35;98252.44;;;8.24;100.00
48352;BME280;34163;49.314;6.752;2022-11-15T19:56:01;98251.13;;;8.31;100.00
48352;BME280;34163;49.314;6.752;2022-11-15T19:58:27;98245.66;;;8.34;100.00
48352;BME280;34163;49.314;6.752;2022-11-15T20:01:12;98256.56;;;8.44;100.00
48352;BME280;34163;49.314;6.752;2022-11-15T20:03:40;98247.53;;;8.48;100.00
48352;BME280;34163;49.314;6.752;2022-11-15T20:06:06;98252.56;;;8.52;100.00
48352;BME280;34163;49.314;6.752;2022-11-15T20:08:32;98246.41;;;8.52;100.00
48352;BME280;34163;49.314;6.752;2022-11-15T20:10:58;98245.03;;;8.61;100.00
48352;BME280;34163;49.314;6.752;2022-11-15T20:13:23;98236.09;;;8.63;100.00
48352;BME280;34163;49.314;6.752;2022-11-15T20:15:49;98242.78;;;8.69;100.00
48352;BME280;34163;49.314;6.752;2022-11-15T20:18:14;98240.97;;;8.69;100.00
48352;BME280;34163;49.314;6.752;2022-11-15T20:20:40;98239.94;;;8.72;100.00
48352;BME280;34163;49.314;6.752;2022-11-15T20:23:05;98235.22;;;8.77;100.00
48352;BME280;34163;49.314;6.752;2022-11-15T20:25:30;98230.56;;;8.82;100.00
48352;BME280;34163;49.314;6.752;2022-11-15T20:27:56;98235.72;;;8.84;100.00
48352;BME280;34163;49.314;6.752;2022-11-15T20:30:21;98234.69;;;8.86;100.00
48352;BME280;34163;49.314;6.752;2022-11-15T20:32:46;98231.84;;;8.89;100.00
48352;BME280;34163;49.314;6.752;2022-11-15T20:35:11;98236.88;;;8.94;100.00
48352;BME280;34163;49.314;6.752;2022-11-15T20:37:37;98235.16;;;8.93;100.00
48352;BME280;34163;49.314;6.752;2022-11-15T20:40:02;98232.97;;;9.00;100.00
48352;BME280;34163;49.314;6.752;2022-11-15T20:42:27;98229.50;;;8.99;100.00
48352;BME280;34163;49.314;6.752;2022-11-15T20:44:53;98230.16;;;9.03;100.00
48352;BME280;34163;49.314;6.752;2022-11-15T20:47:18;98224.03;;;9.02;100.00
48352;BME280;34163;49.314;6.752;2022-11-15T20:49:43;98217.53;;;9.08;100.00
48352;BME280;34163;49.314;6.752;2022-11-15T20:52:09;98214.81;;;9.09;100.00
48352;BME280;34163;49.314;6.752;2022-11-15T20:54:34;98211.84;;;9.14;100.00
48352;BME280;34163;49.314;6.752;2022-11-15T20:57:02;98206.88;;;8.95;100.00
48352;BME280;34163;49.314;6.752;2022-11-15T21:02:10;98198.78;;;7.93;100.00
48352;BME280;34163;49.314;6.752;2022-11-15T21:04:36;98200.41;;;7.79;100.00
48352;BME280;34163;49.314;6.752;2022-11-15T21:07:01;98201.88;;;7.69;100.00
48352;BME280;34163;49.314;6.752;2022-11-15T21:09:26;98204.06;;;7.61;100.00
48352;BME280;34163;49.314;6.752;2022-11-15T21:12:11;98195.00;;;7.51;100.00
48352;BME280;34163;49.314;6.752;2022-11-15T21:14:38;98190.91;;;7.45;100.00
48352;BME280;34163;49.314;6.752;2022-11-15T21:17:03;98193.81;;;7.40;100.00
48352;BME280;34163;49.314;6.752;2022-11-15T21:19:29;98185.47;;;7.32;100.00
48352;BME280;34163;49.314;6.752;2022-11-15T21:21:54;98184.94;;;7.25;100.00